sensor_id;sensor_type;location;lat;lon;timestamp;temperature;humidity
76269;DHT22;65088;52.352;4.846;2022-12-07T00:00:12;4.70;81.70
76269;DHT22;65088;52.352;4.846;2022-12-07T00:02:42;4.70;82.10
76269;DHT22;65088;52.352;4.846;2022-12-07T00:05:14;4.70;82.40
76269;DHT22;65088;52.352;4.846;2022-12-07T00:07:43;4.80;82.80
76269;DHT22;65088;52.352;4.846;2022-12-07T00:10:13;5.00;83.10
76269;DHT22;65088;52.352;4.846;2022-12-07T00:12:42;5.10;83.30
76269;DHT22;65088;52.352;4.846;2022-12-07T00:15:11;5.20;83.20
76269;DHT22;65088;52.352;4.846;2022-12-07T00:17:40;5.20;82.70
76269;DHT22;65088;52.352;4.846;2022-12-07T00:20:13;5.20;82.40
76269;DHT22;65088;52.352;4.846;2022-12-07T00:22:42;5.10;82.30
76269;DHT22;65088;52.352;4.846;2022-12-07T00:25:11;5.00;82.10
76269;DHT22;65088;52.352;4.846;2022-12-07T00:27:41;4.90;82.00
76269;DHT22;65088;52.352;4.846;2022-12-07T00:30:10;4.90;82.30
76269;DHT22;65088;52.352;4.846;2022-12-07T00:32:40;4.90;82.50
76269;DHT22;65088;52.352;4.846;2022-12-07T00:35:09;4.90;82.50
76269;DHT22;65088;52.352;4.846;2022-12-07T00:37:41;5.00;82.80
76269;DHT22;65088;52.352;4.846;2022-12-07T00:40:11;5.10;82.90
76269;DHT22;65088;52.352;4.846;2022-12-07T00:42:40;5.20;82.90
76269;DHT22;65088;52.352;4.846;2022-12-07T00:45:10;5.10;82.60
76269;DHT22;65088;52.352;4.846;2022-12-07T00:47:39;5.00;82.20
76269;DHT22;65088;52.352;4.846;2022-12-07T00:50:08;4.90;81.90
76269;DHT22;65088;52.352;4.846;2022-12-07T00:52:40;4.80;81.90
76269;DHT22;65088;52.352;4.846;2022-12-07T00:55:09;4.70;81.80
76269;DHT22;65088;52.352;4.846;2022-12-07T00:57:39;4.70;81.80
76269;DHT22;65088;52.352;4.846;2022-12-07T01:00:09;4.60;81.90
76269;DHT22;65088;52.352;4.846;2022-12-07T01:02:38;4.60;82.10
76269;DHT22;65088;52.352;4.846;2022-12-07T01:05:08;4.60;82.30
76269;DHT22;65088;52.352;4.846;2022-12-07T01:07:40;4.70;82.70
76269;DHT22;65088;52.352;4.846;2022-12-07T01:10:10;4.90;83.00
76269;DHT22;65088;52.352;4.846;2022-12-07T01:12:40;5.00;83.00
76269;DHT22;65088;52.352;4.846;2022-12-07T01:15:10;5.00;82.80
76269;DHT22;65088;52.352;4.846;2022-12-07T01:17:39;5.10;82.90
76269;DHT22;65088;52.352;4.846;2022-12-07T01:20:09;5.20;83.00
76269;DHT22;65088;52.352;4.846;2022-12-07T01:22:42;5.30;83.00
76269;DHT22;65088;52.352;4.846;2022-12-07T01:25:12;5.40;83.00
76269;DHT22;65088;52.352;4.846;2022-12-07T01:27:41;5.50;82.90
76269;DHT22;65088;52.352;4.846;2022-12-07T01:30:12;5.50;82.80
76269;DHT22;65088;52.352;4.846;2022-12-07T01:32:41;5.50;82.60
76269;DHT22;65088;52.352;4.846;2022-12-07T01:35:11;5.40;82.50
76269;DHT22;65088;52.352;4.846;2022-12-07T01:37:43;5.40;82.40
76269;DHT22;65088;52.352;4.846;2022-12-07T01:40:12;5.30;82.40
76269;DHT22;65088;52.352;4.846;2022-12-07T01:42:42;5.20;82.20
76269;DHT22;65088;52.352;4.846;2022-12-07T01:48:07;5.10;82.00
76269;DHT22;65088;52.352;4.846;2022-12-07T01:50:38;4.90;81.70
76269;DHT22;65088;52.352;4.846;2022-12-07T01:53:11;4.80;81.70
76269;DHT22;65088;52.352;4.846;2022-12-07T01:55:44;4.70;81.80
76269;DHT22;65088;52.352;4.846;2022-12-07T01:58:15;4.60;81.90
76269;DHT22;65088;52.352;4.846;2022-12-07T02:00:45;4.60;81.90
76269;DHT22;65088;52.352;4.846;2022-12-07T02:03:18;4.50;81.90
76269;DHT22;65088;52.352;4.846;2022-12-07T02:05:48;4.50;82.10
76269;DHT22;65088;52.352;4.846;2022-12-07T02:08:20;4.60;82.30
76269;DHT22;65088;52.352;4.846;2022-12-07T02:10:50;4.70;82.70
76269;DHT22;65088;52.352;4.846;2022-12-07T02:13:25;4.70;82.50
76269;DHT22;65088;52.352;4.846;2022-12-07T02:16:08;4.70;82.40
76269;DHT22;65088;52.352;4.846;2022-12-07T02:18:47;4.70;82.40
76269;DHT22;65088;52.352;4.846;2022-12-07T02:21:23;4.70;82.30
76269;DHT22;65088;52.352;4.846;2022-12-07T02:24:13;4.70;82.40
76269;DHT22;65088;52.352;4.846;2022-12-07T02:27:10;4.70;82.20
76269;DHT22;65088;52.352;4.846;2022-12-07T02:29:45;4.60;81.80
76269;DHT22;65088;52.352;4.846;2022-12-07T02:32:20;4.60;82.00
76269;DHT22;65088;52.352;4.846;2022-12-07T02:34:52;4.50;82.10
76269;DHT22;65088;52.352;4.846;2022-12-07T02:37:34;4.50;82.10
76269;DHT22;65088;52.352;4.846;2022-12-07T02:40:10;4.50;82.00
76269;DHT22;65088;52.352;4.846;2022-12-07T02:42:45;4.40;82.00
76269;DHT22;65088;52.352;4.846;2022-12-07T02:45:21;4.40;82.10
76269;DHT22;65088;52.352;4.846;2022-12-07T02:47:53;4.40;82.10
76269;DHT22;65088;52.352;4.846;2022-12-07T02:50:25;4.30;82.10
76269;DHT22;65088;52.352;4.846;2022-12-07T02:52:54;4.30;81.80
76269;DHT22;65088;52.352;4.846;2022-12-07T02:55:28;4.10;81.40
76269;DHT22;65088;52.352;4.846;2022-12-07T02:58:20;4.10;81.60
76269;DHT22;65088;52.352;4.846;2022-12-07T03:01:03;4.00;81.80
76269;DHT22;65088;52.352;4.846;2022-12-07T03:03:37;4.10;82.20
76269;DHT22;65088;52.352;4.846;2022-12-07T03:06:12;4.20;82.50
76269;DHT22;65088;52.352;4.846;2022-12-07T03:08:52;4.30;82.70
76269;DHT22;65088;52.352;4.846;2022-12-07T03:11:28;4.40;82.60
76269;DHT22;65088;52.352;4.846;2022-12-07T03:14:01;4.40;82.50
76269;DHT22;65088;52.352;4.846;2022-12-07T03:16:39;4.50;82.50
76269;DHT22;65088;52.352;4.846;2022-12-07T03:19:13;4.50;82.80
76269;DHT22;65088;52.352;4.846;2022-12-07T03:21:46;4.70;82.90
76269;DHT22;65088;52.352;4.846;2022-12-07T03:24:20;4.70;82.80
76269;DHT22;65088;52.352;4.846;2022-12-07T03:26:53;4.70;82.40
76269;DHT22;65088;52.352;4.846;2022-12-07T03:29:26;4.70;82.20
76269;DHT22;65088;52.352;4.846;2022-12-07T03:32:03;4.60;82.00
76269;DHT22;65088;52.352;4.846;2022-12-07T03:34:36;4.50;81.90
76269;DHT22;65088;52.352;4.846;2022-12-07T03:37:12;4.40;81.80
76269;DHT22;65088;52.352;4.846;2022-12-07T03:39:50;4.40;81.80
76269;DHT22;65088;52.352;4.846;2022-12-07T03:42:23;4.30;81.70
76269;DHT22;65088;52.352;4.846;2022-12-07T03:44:53;4.20;81.60
76269;DHT22;65088;52.352;4.846;2022-12-07T03:47:29;4.10;81.50
76269;DHT22;65088;52.352;4.846;2022-12-07T03:50:03;4.00;81.40
76269;DHT22;65088;52.352;4.846;2022-12-07T03:52:36;4.00;81.70
76269;DHT22;65088;52.352;4.846;2022-12-07T03:55:10;4.10;82.50
76269;DHT22;65088;52.352;4.846;2022-12-07T03:57:41;4.30;82.90
76269;DHT22;65088;52.352;4.846;2022-12-07T04:00:12;4.50;83.00
76269;DHT22;65088;52.352;4.846;2022-12-07T04:02:44;4.60;83.00
76269;DHT22;65088;52.352;4.846;2022-12-07T04:05:14;4.70;82.80
76269;DHT22;65088;52.352;4.846;2022-12-07T04:07:43;4.60;82.30
76269;DHT22;65088;52.352;4.846;2022-12-07T04:10:13;4.50;81.80
76269;DHT22;65088;52.352;4.846;2022-12-07T04:12:42;4.40;81.50
76269;DHT22;65088;52.352;4.846;2022-12-07T04:15:12;4.30;81.50
76269;DHT22;65088;52.352;4.846;2022-12-07T04:17:43;4.20;81.70
76269;DHT22;65088;52.352;4.846;2022-12-07T04:20:13;4.20;81.90
76269;DHT22;65088;52.352;4.846;2022-12-07T04:22:42;4.30;82.20
76269;DHT22;65088;52.352;4.846;2022-12-07T04:25:11;4.40;82.40
76269;DHT22;65088;52.352;4.846;2022-12-07T04:27:40;4.40;82.20
76269;DHT22;65088;52.352;4.846;2022-12-07T04:30:10;4.40;81.90
76269;DHT22;65088;52.352;4.846;2022-12-07T04:32:39;4.40;81.70
76269;DHT22;65088;52.352;4.846;2022-12-07T04:35:11;4.30;81.70
76269;DHT22;65088;52.352;4.846;2022-12-07T04:37:40;4.30;81.90
76269;DHT22;65088;52.352;4.846;2022-12-07T04:40:10;4.30;82.00
76269;DHT22;65088;52.352;4.846;2022-12-07T04:42:40;4.40;82.20
76269;DHT22;65088;52.352;4.846;2022-12-07T04:45:10;4.50;82.20
76269;DHT22;65088;52.352;4.846;2022-12-07T04:47:39;4.50;82.20
76269;DHT22;65088;52.352;4.846;2022-12-07T04:50:11;4.60;82.40
76269;DHT22;65088;52.352;4.846;2022-12-07T04:52:41;4.70;82.40
76269;DHT22;65088;52.352;4.846;2022-12-07T04:55:10;4.80;82.60
76269;DHT22;65088;52.352;4.846;2022-12-07T04:57:39;4.90;82.40
76269;DHT22;65088;52.352;4.846;2022-12-07T05:00:09;5.00;82.30
76269;DHT22;65088;52.352;4.846;2022-12-07T05:02:39;5.10;82.20
76269;DHT22;65088;52.352;4.846;2022-12-07T05:05:11;5.20;82.00
76269;DHT22;65088;52.352;4.846;2022-12-07T05:07:40;5.10;81.80
76269;DHT22;65088;52.352;4.846;2022-12-07T05:10:10;5.10;81.80
76269;DHT22;65088;52.352;4.846;2022-12-07T05:12:39;5.10;81.70
76269;DHT22;65088;52.352;4.846;2022-12-07T05:15:09;5.00;81.60
76269;DHT22;65088;52.352;4.846;2022-12-07T05:17:38;5.00;81.40
76269;DHT22;65088;52.352;4.846;2022-12-07T05:20:11;4.90;81.30
76269;DHT22;65088;52.352;4.846;2022-12-07T05:22:41;4.80;81.40
76269;DHT22;65088;52.352;4.846;2022-12-07T05:25:10;4.90;81.90
76269;DHT22;65088;52.352;4.846;2022-12-07T05:27:39;4.90;82.10
76269;DHT22;65088;52.352;4.846;2022-12-07T05:30:09;5.00;82.10
76269;DHT22;65088;52.352;4.846;2022-12-07T05:32:39;5.10;82.30
76269;DHT22;65088;52.352;4.846;2022-12-07T05:35:09;5.20;82.30
76269;DHT22;65088;52.352;4.846;2022-12-07T05:37:41;5.20;82.20
76269;DHT22;65088;52.352;4.846;2022-12-07T05:40:11;5.30;82.10
76269;DHT22;65088;52.352;4.846;2022-12-07T05:42:40;5.30;82.10
76269;DHT22;65088;52.352;4.846;2022-12-07T05:45:09;5.30;82.00
76269;DHT22;65088;52.352;4.846;2022-12-07T05:47:38;5.30;81.90
76269;DHT22;65088;52.352;4.846;2022-12-07T05:50:08;5.30;81.70
76269;DHT22;65088;52.352;4.846;2022-12-07T05:52:37;5.20;81.30
76269;DHT22;65088;52.352;4.846;2022-12-07T05:55:09;5.10;80.80
76269;DHT22;65088;52.352;4.846;2022-12-07T05:57:38;4.90;81.00
76269;DHT22;65088;52.352;4.846;2022-12-07T06:00:27;4.90;81.40
76269;DHT22;65088;52.352;4.846;2022-12-07T06:02:54;4.90;81.70
76269;DHT22;65088;52.352;4.846;2022-12-07T06:05:23;4.90;81.60
76269;DHT22;65088;52.352;4.846;2022-12-07T06:07:53;4.90;81.40
76269;DHT22;65088;52.352;4.846;2022-12-07T06:10:24;4.80;81.50
76269;DHT22;65088;52.352;4.846;2022-12-07T06:12:54;4.90;81.50
76269;DHT22;65088;52.352;4.846;2022-12-07T06:15:20;4.80;81.40
76269;DHT22;65088;52.352;4.846;2022-12-07T06:17:50;4.80;81.50
76269;DHT22;65088;52.352;4.846;2022-12-07T06:20:19;4.90;81.50
76269;DHT22;65088;52.352;4.846;2022-12-07T06:22:48;4.80;81.20
76269;DHT22;65088;52.352;4.846;2022-12-07T06:25:17;4.70;81.00
76269;DHT22;65088;52.352;4.846;2022-12-07T06:27:49;4.60;81.00
76269;DHT22;65088;52.352;4.846;2022-12-07T06:30:19;4.60;80.90
76269;DHT22;65088;52.352;4.846;2022-12-07T06:32:48;4.50;80.90
76269;DHT22;65088;52.352;4.846;2022-12-07T06:35:17;4.40;81.10
76269;DHT22;65088;52.352;4.846;2022-12-07T06:37:47;4.40;81.00
76269;DHT22;65088;52.352;4.846;2022-12-07T06:40:16;4.40;81.30
76269;DHT22;65088;52.352;4.846;2022-12-07T06:42:45;4.40;81.30
76269;DHT22;65088;52.352;4.846;2022-12-07T06:45:17;4.40;81.30
76269;DHT22;65088;52.352;4.846;2022-12-07T06:47:47;4.30;81.50
76269;DHT22;65088;52.352;4.846;2022-12-07T06:50:17;4.30;81.40
76269;DHT22;65088;52.352;4.846;2022-12-07T06:52:46;4.30;81.40
76269;DHT22;65088;52.352;4.846;2022-12-07T06:55:15;4.30;81.30
76269;DHT22;65088;52.352;4.846;2022-12-07T06:57:45;4.20;81.40
76269;DHT22;65088;52.352;4.846;2022-12-07T07:00:17;4.20;81.40
76269;DHT22;65088;52.352;4.846;2022-12-07T07:02:47;4.20;81.50
76269;DHT22;65088;52.352;4.846;2022-12-07T07:05:16;4.20;81.50
76269;DHT22;65088;52.352;4.846;2022-12-07T07:07:47;4.20;81.40
76269;DHT22;65088;52.352;4.846;2022-12-07T07:10:17;4.20;81.50
76269;DHT22;65088;52.352;4.846;2022-12-07T07:12:46;4.20;81.40
76269;DHT22;65088;52.352;4.846;2022-12-07T07:15:18;4.20;81.50
76269;DHT22;65088;52.352;4.846;2022-12-07T07:17:47;4.20;81.60
76269;DHT22;65088;52.352;4.846;2022-12-07T07:20:17;4.20;81.60
76269;DHT22;65088;52.352;4.846;2022-12-07T07:22:46;4.10;81.40
76269;DHT22;65088;52.352;4.846;2022-12-07T07:25:15;4.10;81.50
76269;DHT22;65088;52.352;4.846;2022-12-07T07:27:45;4.10;81.70
76269;DHT22;65088;52.352;4.846;2022-12-07T07:30:14;4.20;81.80
76269;DHT22;65088;52.352;4.846;2022-12-07T07:32:46;4.30;81.90
76269;DHT22;65088;52.352;4.846;2022-12-07T07:35:15;4.30;81.80
76269;DHT22;65088;52.352;4.846;2022-12-07T07:37:45;4.40;82.00
76269;DHT22;65088;52.352;4.846;2022-12-07T07:40:14;4.50;82.10
76269;DHT22;65088;52.352;4.846;2022-12-07T07:42:46;4.60;82.10
76269;DHT22;65088;52.352;4.846;2022-12-07T07:45:15;4.70;82.00
76269;DHT22;65088;52.352;4.846;2022-12-07T07:47:48;4.80;81.80
76269;DHT22;65088;52.352;4.846;2022-12-07T07:50:18;4.90;81.50
76269;DHT22;65088;52.352;4.846;2022-12-07T07:52:47;4.90;81.30
76269;DHT22;65088;52.352;4.846;2022-12-07T07:55:17;4.80;81.00
76269;DHT22;65088;52.352;4.846;2022-12-07T07:57:47;4.80;81.00
76269;DHT22;65088;52.352;4.846;2022-12-07T08:00:17;4.80;80.90
76269;DHT22;65088;52.352;4.846;2022-12-07T08:02:49;4.70;81.10
76269;DHT22;65088;52.352;4.846;2022-12-07T08:05:18;4.80;81.10
76269;DHT22;65088;52.352;4.846;2022-12-07T08:07:48;4.80;81.20
76269;DHT22;65088;52.352;4.846;2022-12-07T08:10:17;4.80;81.30
76269;DHT22;65088;52.352;4.846;2022-12-07T08:12:46;4.90;81.30
76269;DHT22;65088;52.352;4.846;2022-12-07T08:15:30;5.00;81.30
76269;DHT22;65088;52.352;4.846;2022-12-07T08:18:02;5.10;81.20
76269;DHT22;65088;52.352;4.846;2022-12-07T08:20:32;5.10;80.90
76269;DHT22;65088;52.352;4.846;2022-12-07T08:23:02;5.10;80.80
76269;DHT22;65088;52.352;4.846;2022-12-07T08:25:32;5.10;80.40
76269;DHT22;65088;52.352;4.846;2022-12-07T08:28:01;5.00;80.50
76269;DHT22;65088;52.352;4.846;2022-12-07T08:30:31;5.00;80.90
76269;DHT22;65088;52.352;4.846;2022-12-07T08:33:03;5.10;81.00
76269;DHT22;65088;52.352;4.846;2022-12-07T08:35:33;5.10;80.80
76269;DHT22;65088;52.352;4.846;2022-12-07T08:38:02;5.20;81.10
76269;DHT22;65088;52.352;4.846;2022-12-07T08:40:32;5.40;81.20
76269;DHT22;65088;52.352;4.846;2022-12-07T08:43:01;5.50;80.90
76269;DHT22;65088;52.352;4.846;2022-12-07T08:45:31;5.60;80.60
76269;DHT22;65088;52.352;4.846;2022-12-07T08:48:07;5.50;80.30
76269;DHT22;65088;52.352;4.846;2022-12-07T08:50:37;5.50;80.10
76269;DHT22;65088;52.352;4.846;2022-12-07T08:53:07;5.40;80.00
76269;DHT22;65088;52.352;4.846;2022-12-07T08:55:37;5.30;79.50
76269;DHT22;65088;52.352;4.846;2022-12-07T08:58:06;5.20;79.30
76269;DHT22;65088;52.352;4.846;2022-12-07T09:00:35;5.00;79.50
76269;DHT22;65088;52.352;4.846;2022-12-07T09:03:07;4.90;79.70
76269;DHT22;65088;52.352;4.846;2022-12-07T09:05:36;4.90;80.00
76269;DHT22;65088;52.352;4.846;2022-12-07T09:08:06;4.80;80.20
76269;DHT22;65088;52.352;4.846;2022-12-07T09:10:36;4.80;80.20
76269;DHT22;65088;52.352;4.846;2022-12-07T09:13:05;4.80;80.20
76269;DHT22;65088;52.352;4.846;2022-12-07T09:15:34;4.80;80.30
76269;DHT22;65088;52.352;4.846;2022-12-07T09:18:07;4.80;80.50
76269;DHT22;65088;52.352;4.846;2022-12-07T09:20:36;4.90;80.40
76269;DHT22;65088;52.352;4.846;2022-12-07T09:23:05;4.90;80.40
76269;DHT22;65088;52.352;4.846;2022-12-07T09:25:35;4.90;80.40
76269;DHT22;65088;52.352;4.846;2022-12-07T09:28:04;5.00;80.40
76269;DHT22;65088;52.352;4.846;2022-12-07T09:30:34;5.00;80.40
76269;DHT22;65088;52.352;4.846;2022-12-07T09:33:03;5.00;80.30
76269;DHT22;65088;52.352;4.846;2022-12-07T09:35:35;5.00;80.40
76269;DHT22;65088;52.352;4.846;2022-12-07T09:38:04;5.10;80.50
76269;DHT22;65088;52.352;4.846;2022-12-07T09:40:33;5.20;80.60
76269;DHT22;65088;52.352;4.846;2022-12-07T09:43:03;5.30;80.60
76269;DHT22;65088;52.352;4.846;2022-12-07T09:45:34;5.40;80.70
76269;DHT22;65088;52.352;4.846;2022-12-07T09:48:05;5.70;80.60
76269;DHT22;65088;52.352;4.846;2022-12-07T09:50:37;5.80;79.90
76269;DHT22;65088;52.352;4.846;2022-12-07T09:53:12;5.80;79.40
76269;DHT22;65088;52.352;4.846;2022-12-07T09:55:43;5.80;79.40
76269;DHT22;65088;52.352;4.846;2022-12-07T09:58:19;5.90;79.80
76269;DHT22;65088;52.352;4.846;2022-12-07T10:00:50;6.20;80.00
76269;DHT22;65088;52.352;4.846;2022-12-07T10:03:19;6.40;79.30
76269;DHT22;65088;52.352;4.846;2022-12-07T10:05:52;6.50;78.80
76269;DHT22;65088;52.352;4.846;2022-12-07T10:08:22;6.40;78.30
76269;DHT22;65088;52.352;4.846;2022-12-07T10:10:53;6.30;77.70
76269;DHT22;65088;52.352;4.846;2022-12-07T10:13:34;6.10;78.00
76269;DHT22;65088;52.352;4.846;2022-12-07T10:16:06;6.00;78.00
76269;DHT22;65088;52.352;4.846;2022-12-07T10:18:36;5.80;78.00
76269;DHT22;65088;52.352;4.846;2022-12-07T10:21:16;5.60;78.40
76269;DHT22;65088;52.352;4.846;2022-12-07T10:24:00;5.40;78.60
76269;DHT22;65088;52.352;4.846;2022-12-07T10:26:32;5.30;79.00
76269;DHT22;65088;52.352;4.846;2022-12-07T10:29:13;5.30;79.40
76269;DHT22;65088;52.352;4.846;2022-12-07T10:31:43;5.30;79.50
76269;DHT22;65088;52.352;4.846;2022-12-07T10:34:22;5.40;79.60
76269;DHT22;65088;52.352;4.846;2022-12-07T10:37:14;5.40;79.50
76269;DHT22;65088;52.352;4.846;2022-12-07T10:39:45;5.50;79.40
76269;DHT22;65088;52.352;4.846;2022-12-07T10:42:19;5.50;79.30
76269;DHT22;65088;52.352;4.846;2022-12-07T10:44:50;5.50;79.40
76269;DHT22;65088;52.352;4.846;2022-12-07T10:47:37;5.50;79.40
76269;DHT22;65088;52.352;4.846;2022-12-07T10:50:29;5.50;79.40
76269;DHT22;65088;52.352;4.846;2022-12-07T10:53:32;5.50;79.60
76269;DHT22;65088;52.352;4.846;2022-12-07T10:56:33;5.60;79.50
76269;DHT22;65088;52.352;4.846;2022-12-07T10:59:25;5.60;79.50
76269;DHT22;65088;52.352;4.846;2022-12-07T11:02:00;5.60;79.50
76269;DHT22;65088;52.352;4.846;2022-12-07T11:04:38;5.70;79.50
76269;DHT22;65088;52.352;4.846;2022-12-07T11:07:14;5.70;79.40
76269;DHT22;65088;52.352;4.846;2022-12-07T11:10:01;5.70;79.40
76269;DHT22;65088;52.352;4.846;2022-12-07T11:12:47;5.80;79.40
76269;DHT22;65088;52.352;4.846;2022-12-07T11:15:22;6.00;79.50
76269;DHT22;65088;52.352;4.846;2022-12-07T11:17:59;6.20;79.50
76269;DHT22;65088;52.352;4.846;2022-12-07T11:20:40;6.50;79.40
76269;DHT22;65088;52.352;4.846;2022-12-07T11:23:18;7.00;79.00
76269;DHT22;65088;52.352;4.846;2022-12-07T11:26:01;7.30;78.10
76269;DHT22;65088;52.352;4.846;2022-12-07T11:28:43;7.20;77.30
76269;DHT22;65088;52.352;4.846;2022-12-07T11:31:24;7.00;77.30
76269;DHT22;65088;52.352;4.846;2022-12-07T11:34:00;6.90;77.40
76269;DHT22;65088;52.352;4.846;2022-12-07T11:36:36;6.70;77.50
76269;DHT22;65088;52.352;4.846;2022-12-07T11:39:22;6.60;77.40
76269;DHT22;65088;52.352;4.846;2022-12-07T11:42:16;6.70;77.20
76269;DHT22;65088;52.352;4.846;2022-12-07T11:44:50;7.10;75.90
76269;DHT22;65088;52.352;4.846;2022-12-07T11:47:27;7.60;74.40
76269;DHT22;65088;52.352;4.846;2022-12-07T11:50:05;7.80;73.70
76269;DHT22;65088;52.352;4.846;2022-12-07T11:52:44;7.70;72.90
76269;DHT22;65088;52.352;4.846;2022-12-07T11:55:21;7.50;72.60
76269;DHT22;65088;52.352;4.846;2022-12-07T11:58:03;7.60;73.90
76269;DHT22;65088;52.352;4.846;2022-12-07T12:00:33;8.00;74.10
76269;DHT22;65088;52.352;4.846;2022-12-07T12:03:09;8.30;73.20
76269;DHT22;65088;52.352;4.846;2022-12-07T12:05:40;8.50;72.30
76269;DHT22;65088;52.352;4.846;2022-12-07T12:08:14;8.70;71.30
76269;DHT22;65088;52.352;4.846;2022-12-07T12:10:53;8.80;71.10
76269;DHT22;65088;52.352;4.846;2022-12-07T12:13:48;9.00;71.20
76269;DHT22;65088;52.352;4.846;2022-12-07T12:16:40;9.20;71.30
76269;DHT22;65088;52.352;4.846;2022-12-07T12:19:23;9.40;71.00
76269;DHT22;65088;52.352;4.846;2022-12-07T12:21:56;9.50;69.80
76269;DHT22;65088;52.352;4.846;2022-12-07T12:24:30;9.60;68.60
76269;DHT22;65088;52.352;4.846;2022-12-07T12:27:05;9.80;67.80
76269;DHT22;65088;52.352;4.846;2022-12-07T12:29:40;9.70;66.70
76269;DHT22;65088;52.352;4.846;2022-12-07T12:32:16;9.50;66.40
76269;DHT22;65088;52.352;4.846;2022-12-07T12:35:00;9.30;65.70
76269;DHT22;65088;52.352;4.846;2022-12-07T12:37:43;9.00;65.90
76269;DHT22;65088;52.352;4.846;2022-12-07T12:40:40;8.60;66.20
76269;DHT22;65088;52.352;4.846;2022-12-07T12:46:44;8.10;66.30
76269;DHT22;65088;52.352;4.846;2022-12-07T12:49:35;7.80;66.70
76269;DHT22;65088;52.352;4.846;2022-12-07T12:58:33;7.30;67.80
76269;DHT22;65088;52.352;4.846;2022-12-07T13:04:23;7.20;68.60
76269;DHT22;65088;52.352;4.846;2022-12-07T13:06:53;7.20;68.70
76269;DHT22;65088;52.352;4.846;2022-12-07T13:09:25;7.20;68.70
76269;DHT22;65088;52.352;4.846;2022-12-07T13:12:02;7.20;68.70
76269;DHT22;65088;52.352;4.846;2022-12-07T13:14:57;7.20;68.80
76269;DHT22;65088;52.352;4.846;2022-12-07T13:23:29;7.00;68.90
76269;DHT22;65088;52.352;4.846;2022-12-07T13:26:15;6.90;68.90
76269;DHT22;65088;52.352;4.846;2022-12-07T13:28:46;6.80;69.00
76269;DHT22;65088;52.352;4.846;2022-12-07T13:31:32;6.80;69.20
76269;DHT22;65088;52.352;4.846;2022-12-07T13:34:03;6.80;69.30
76269;DHT22;65088;52.352;4.846;2022-12-07T13:36:36;6.80;69.40
76269;DHT22;65088;52.352;4.846;2022-12-07T13:39:21;6.90;69.20
76269;DHT22;65088;52.352;4.846;2022-12-07T13:41:53;6.90;69.20
76269;DHT22;65088;52.352;4.846;2022-12-07T13:44:24;6.90;69.30
76269;DHT22;65088;52.352;4.846;2022-12-07T13:46:59;7.00;69.30
76269;DHT22;65088;52.352;4.846;2022-12-07T13:49:33;7.10;69.20
76269;DHT22;65088;52.352;4.846;2022-12-07T13:52:16;7.20;69.10
76269;DHT22;65088;52.352;4.846;2022-12-07T13:54:54;7.20;69.00
76269;DHT22;65088;52.352;4.846;2022-12-07T13:57:25;7.20;68.90
76269;DHT22;65088;52.352;4.846;2022-12-07T13:59:57;7.30;68.80
76269;DHT22;65088;52.352;4.846;2022-12-07T14:02:28;7.30;69.00
76269;DHT22;65088;52.352;4.846;2022-12-07T14:05:07;7.30;69.00
76269;DHT22;65088;52.352;4.846;2022-12-07T14:07:52;7.20;69.30
76269;DHT22;65088;52.352;4.846;2022-12-07T14:10:28;7.20;69.60
76269;DHT22;65088;52.352;4.846;2022-12-07T14:12:58;7.20;69.80
76269;DHT22;65088;52.352;4.846;2022-12-07T14:15:29;7.20;69.90
76269;DHT22;65088;52.352;4.846;2022-12-07T14:18:00;7.10;70.10
76269;DHT22;65088;52.352;4.846;2022-12-07T14:20:33;7.10;70.20
76269;DHT22;65088;52.352;4.846;2022-12-07T14:23:03;7.10;70.30
76269;DHT22;65088;52.352;4.846;2022-12-07T14:25:51;7.10;70.10
76269;DHT22;65088;52.352;4.846;2022-12-07T14:28:28;7.10;70.30
76269;DHT22;65088;52.352;4.846;2022-12-07T14:30:57;7.10;70.20
76269;DHT22;65088;52.352;4.846;2022-12-07T14:33:27;7.10;70.10
76269;DHT22;65088;52.352;4.846;2022-12-07T14:35:56;7.10;70.00
76269;DHT22;65088;52.352;4.846;2022-12-07T14:38:25;7.10;69.50
76269;DHT22;65088;52.352;4.846;2022-12-07T14:40:57;7.10;68.50
76269;DHT22;65088;52.352;4.846;2022-12-07T14:43:47;7.10;68.80
76269;DHT22;65088;52.352;4.846;2022-12-07T14:46:16;7.00;68.70
76269;DHT22;65088;52.352;4.846;2022-12-07T14:48:45;7.00;68.40
76269;DHT22;65088;52.352;4.846;2022-12-07T14:51:15;7.00;68.30
76269;DHT22;65088;52.352;4.846;2022-12-07T14:53:46;7.00;68.50
76269;DHT22;65088;52.352;4.846;2022-12-07T14:56:19;6.90;68.60
76269;DHT22;65088;52.352;4.846;2022-12-07T14:58:48;6.90;68.50
76269;DHT22;65088;52.352;4.846;2022-12-07T15:01:17;6.90;68.40
76269;DHT22;65088;52.352;4.846;2022-12-07T15:03:46;6.90;68.50
76269;DHT22;65088;52.352;4.846;2022-12-07T15:06:17;6.90;68.50
76269;DHT22;65088;52.352;4.846;2022-12-07T15:08:47;6.90;68.40
76269;DHT22;65088;52.352;4.846;2022-12-07T15:11:19;6.80;68.80
76269;DHT22;65088;52.352;4.846;2022-12-07T15:13:48;6.60;69.20
76269;DHT22;65088;52.352;4.846;2022-12-07T15:16:30;6.50;69.60
76269;DHT22;65088;52.352;4.846;2022-12-07T15:18:59;6.40;69.90
76269;DHT22;65088;52.352;4.846;2022-12-07T15:21:28;6.40;70.10
76269;DHT22;65088;52.352;4.846;2022-12-07T15:23:57;6.40;70.40
76269;DHT22;65088;52.352;4.846;2022-12-07T15:26:29;6.30;70.50
76269;DHT22;65088;52.352;4.846;2022-12-07T15:28:58;6.30;70.70
76269;DHT22;65088;52.352;4.846;2022-12-07T15:31:28;6.30;70.80
76269;DHT22;65088;52.352;4.846;2022-12-07T15:33:57;6.30;70.90
76269;DHT22;65088;52.352;4.846;2022-12-07T15:36:28;6.20;71.00
76269;DHT22;65088;52.352;4.846;2022-12-07T15:38:57;6.30;71.00
76269;DHT22;65088;52.352;4.846;2022-12-07T15:41:29;6.30;71.10
76269;DHT22;65088;52.352;4.846;2022-12-07T15:43:59;6.30;71.10
76269;DHT22;65088;52.352;4.846;2022-12-07T15:46:41;6.30;71.20
76269;DHT22;65088;52.352;4.846;2022-12-07T15:49:12;6.20;71.20
76269;DHT22;65088;52.352;4.846;2022-12-07T15:51:45;6.20;71.20
76269;DHT22;65088;52.352;4.846;2022-12-07T15:54:19;6.20;71.40
76269;DHT22;65088;52.352;4.846;2022-12-07T15:56:51;6.20;71.40
76269;DHT22;65088;52.352;4.846;2022-12-07T15:59:21;6.20;71.50
76269;DHT22;65088;52.352;4.846;2022-12-07T16:01:50;6.20;71.50
76269;DHT22;65088;52.352;4.846;2022-12-07T16:04:22;6.20;71.50
76269;DHT22;65088;52.352;4.846;2022-12-07T16:06:52;6.20;71.40
76269;DHT22;65088;52.352;4.846;2022-12-07T16:09:21;6.20;71.50
76269;DHT22;65088;52.352;4.846;2022-12-07T16:11:53;6.20;71.50
76269;DHT22;65088;52.352;4.846;2022-12-07T16:14:23;6.20;71.40
76269;DHT22;65088;52.352;4.846;2022-12-07T16:16:52;6.20;71.40
76269;DHT22;65088;52.352;4.846;2022-12-07T16:19:21;6.30;71.30
76269;DHT22;65088;52.352;4.846;2022-12-07T16:21:50;6.30;71.30
76269;DHT22;65088;52.352;4.846;2022-12-07T16:24:20;6.30;71.30
76269;DHT22;65088;52.352;4.846;2022-12-07T16:26:49;6.30;71.20
76269;DHT22;65088;52.352;4.846;2022-12-07T16:29:22;6.30;71.20
76269;DHT22;65088;52.352;4.846;2022-12-07T16:31:51;6.30;71.20
76269;DHT22;65088;52.352;4.846;2022-12-07T16:34:21;6.40;71.10
76269;DHT22;65088;52.352;4.846;2022-12-07T16:36:50;6.40;71.10
76269;DHT22;65088;52.352;4.846;2022-12-07T16:39:19;6.40;70.80
76269;DHT22;65088;52.352;4.846;2022-12-07T16:41:48;6.50;70.80